sensor_id;sensor_type;location;lat;lon;timestamp;P1;durP1;ratioP1;P2;durP2;ratioP2
18320;SDS011;54904;54.350;18.664;2023-01-16T00:00:27;2.20;;;1.03;;
18320;SDS011;54904;54.350;18.664;2023-01-16T00:02:55;3.20;;;1.33;;
18320;SDS011;54904;54.350;18.664;2023-01-16T00:05:22;1.27;;;0.87;;
18320;SDS011;54904;54.350;18.664;2023-01-16T00:07:49;1.87;;;0.97;;
18320;SDS011;54904;54.350;18.664;2023-01-16T00:10:16;1.13;;;1.00;;
18320;SDS011;54904;54.350;18.664;2023-01-16T00:12:47;2.07;;;0.97;;
18320;SDS011;54904;54.350;18.664;2023-01-16T00:15:15;1.10;;;1.00;;
18320;SDS011;54904;54.350;18.664;2023-01-16T00:17:42;2.30;;;0.87;;
18320;SDS011;54904;54.350;18.664;2023-01-16T00:20:09;1.63;;;1.20;;
18320;SDS011;54904;54.350;18.664;2023-01-16T00:22:37;2.70;;;0.90;;
18320;SDS011;54904;54.350;18.664;2023-01-16T00:25:04;1.67;;;0.90;;
18320;SDS011;54904;54.350;18.664;2023-01-16T00:27:32;1.33;;;1.10;;
18320;SDS011;54904;54.350;18.664;2023-01-16T00:30:01;2.00;;;1.40;;
18320;SDS011;54904;54.350;18.664;2023-01-16T00:32:29;2.63;;;0.90;;
18320;SDS011;54904;54.350;18.664;2023-01-16T00:34:56;0.90;;;0.70;;
18320;SDS011;54904;54.350;18.664;2023-01-16T00:37:23;2.93;;;1.10;;
18320;SDS011;54904;54.350;18.664;2023-01-16T00:39:50;2.63;;;0.93;;
18320;SDS011;54904;54.350;18.664;2023-01-16T00:42:18;3.40;;;1.10;;
18320;SDS011;54904;54.350;18.664;2023-01-16T00:44:45;1.33;;;1.10;;
18320;SDS011;54904;54.350;18.664;2023-01-16T00:47:13;3.93;;;1.17;;
18320;SDS011;54904;54.350;18.664;2023-01-16T00:49:41;1.30;;;0.97;;
18320;SDS011;54904;54.350;18.664;2023-01-16T00:52:08;3.27;;;1.27;;
18320;SDS011;54904;54.350;18.664;2023-01-16T00:54:35;3.57;;;1.20;;
18320;SDS011;54904;54.350;18.664;2023-01-16T00:57:02;3.43;;;1.30;;
18320;SDS011;54904;54.350;18.664;2023-01-16T00:59:29;2.10;;;1.10;;
18320;SDS011;54904;54.350;18.664;2023-01-16T01:01:56;3.40;;;1.10;;
18320;SDS011;54904;54.350;18.664;2023-01-16T01:04:25;1.37;;;0.93;;
18320;SDS011;54904;54.350;18.664;2023-01-16T01:06:53;1.13;;;0.80;;
18320;SDS011;54904;54.350;18.664;2023-01-16T01:09:21;1.70;;;0.87;;
18320;SDS011;54904;54.350;18.664;2023-01-16T01:11:48;0.97;;;0.97;;
18320;SDS011;54904;54.350;18.664;2023-01-16T01:14:15;1.40;;;1.23;;
18320;SDS011;54904;54.350;18.664;2023-01-16T01:16:42;1.70;;;1.10;;
18320;SDS011;54904;54.350;18.664;2023-01-16T01:19:09;2.40;;;0.90;;
18320;SDS011;54904;54.350;18.664;2023-01-16T01:21:37;2.63;;;1.37;;
18320;SDS011;54904;54.350;18.664;2023-01-16T01:24:05;1.43;;;1.00;;
18320;SDS011;54904;54.350;18.664;2023-01-16T01:26:32;4.90;;;1.03;;
18320;SDS011;54904;54.350;18.664;2023-01-16T01:28:59;3.53;;;0.93;;
18320;SDS011;54904;54.350;18.664;2023-01-16T01:31:26;1.87;;;1.10;;
18320;SDS011;54904;54.350;18.664;2023-01-16T01:33:53;1.03;;;0.93;;
18320;SDS011;54904;54.350;18.664;2023-01-16T01:36:21;3.07;;;1.07;;
18320;SDS011;54904;54.350;18.664;2023-01-16T01:38:49;2.77;;;1.20;;
18320;SDS011;54904;54.350;18.664;2023-01-16T01:41:18;1.93;;;0.87;;
18320;SDS011;54904;54.350;18.664;2023-01-16T01:43:46;2.33;;;1.00;;
18320;SDS011;54904;54.350;18.664;2023-01-16T01:46:21;2.03;;;1.17;;
18320;SDS011;54904;54.350;18.664;2023-01-16T01:48:55;1.57;;;0.90;;
18320;SDS011;54904;54.350;18.664;2023-01-16T01:51:27;2.17;;;1.13;;
18320;SDS011;54904;54.350;18.664;2023-01-16T01:54:01;1.17;;;0.90;;
18320;SDS011;54904;54.350;18.664;2023-01-16T01:56:32;1.07;;;0.90;;
18320;SDS011;54904;54.350;18.664;2023-01-16T01:59:02;1.60;;;1.30;;
18320;SDS011;54904;54.350;18.664;2023-01-16T02:04:02;1.37;;;1.10;;
18320;SDS011;54904;54.350;18.664;2023-01-16T02:06:34;3.37;;;1.30;;
18320;SDS011;54904;54.350;18.664;2023-01-16T02:09:08;2.70;;;1.00;;
18320;SDS011;54904;54.350;18.664;2023-01-16T02:11:37;1.27;;;1.17;;
18320;SDS011;54904;54.350;18.664;2023-01-16T02:14:09;1.53;;;1.07;;
18320;SDS011;54904;54.350;18.664;2023-01-16T02:16:39;1.87;;;1.20;;
18320;SDS011;54904;54.350;18.664;2023-01-16T02:19:28;1.60;;;0.90;;
18320;SDS011;54904;54.350;18.664;2023-01-16T02:22:17;1.67;;;1.10;;
18320;SDS011;54904;54.350;18.664;2023-01-16T02:25:27;2.50;;;1.00;;
18320;SDS011;54904;54.350;18.664;2023-01-16T02:28:38;2.13;;;0.90;;
18320;SDS011;54904;54.350;18.664;2023-01-16T02:31:27;1.40;;;0.90;;
18320;SDS011;54904;54.350;18.664;2023-01-16T02:34:05;2.30;;;0.90;;
18320;SDS011;54904;54.350;18.664;2023-01-16T02:36:47;1.70;;;1.00;;
18320;SDS011;54904;54.350;18.664;2023-01-16T02:39:25;2.43;;;0.90;;
18320;SDS011;54904;54.350;18.664;2023-01-16T02:42:13;3.43;;;1.10;;
18320;SDS011;54904;54.350;18.664;2023-01-16T02:44:49;0.90;;;0.73;;
18320;SDS011;54904;54.350;18.664;2023-01-16T02:47:27;1.57;;;1.00;;
18320;SDS011;54904;54.350;18.664;2023-01-16T02:50:04;2.87;;;1.33;;
18320;SDS011;54904;54.350;18.664;2023-01-16T02:52:38;1.57;;;1.00;;
18320;SDS011;54904;54.350;18.664;2023-01-16T02:55:12;1.30;;;1.10;;
18320;SDS011;54904;54.350;18.664;2023-01-16T02:57:49;2.20;;;0.80;;
18320;SDS011;54904;54.350;18.664;2023-01-16T03:00:19;1.23;;;0.83;;
18320;SDS011;54904;54.350;18.664;2023-01-16T03:02:48;1.70;;;1.30;;
18320;SDS011;54904;54.350;18.664;2023-01-16T03:05:16;0.93;;;0.77;;
18320;SDS011;54904;54.350;18.664;2023-01-16T03:08:08;1.93;;;0.83;;
18320;SDS011;54904;54.350;18.664;2023-01-16T03:10:56;1.27;;;0.90;;
18320;SDS011;54904;54.350;18.664;2023-01-16T03:16:56;0.97;;;0.80;;
18320;SDS011;54904;54.350;18.664;2023-01-16T03:19:39;1.70;;;1.00;;
18320;SDS011;54904;54.350;18.664;2023-01-16T03:22:16;2.43;;;0.90;;
18320;SDS011;54904;54.350;18.664;2023-01-16T03:24:55;2.67;;;0.87;;
18320;SDS011;54904;54.350;18.664;2023-01-16T03:27:30;1.23;;;1.00;;
18320;SDS011;54904;54.350;18.664;2023-01-16T03:30:07;1.00;;;0.90;;
18320;SDS011;54904;54.350;18.664;2023-01-16T03:32:39;1.00;;;0.90;;
18320;SDS011;54904;54.350;18.664;2023-01-16T03:35:14;1.80;;;1.27;;
18320;SDS011;54904;54.350;18.664;2023-01-16T03:37:46;3.00;;;1.10;;
18320;SDS011;54904;54.350;18.664;2023-01-16T03:40:18;1.53;;;0.97;;
18320;SDS011;54904;54.350;18.664;2023-01-16T03:42:51;1.30;;;0.90;;
18320;SDS011;54904;54.350;18.664;2023-01-16T03:45:24;1.03;;;0.80;;
18320;SDS011;54904;54.350;18.664;2023-01-16T03:47:57;1.17;;;0.70;;
18320;SDS011;54904;54.350;18.664;2023-01-16T03:50:30;2.73;;;0.70;;
18320;SDS011;54904;54.350;18.664;2023-01-16T03:52:59;0.80;;;0.70;;
18320;SDS011;54904;54.350;18.664;2023-01-16T03:55:31;1.27;;;0.87;;
18320;SDS011;54904;54.350;18.664;2023-01-16T03:58:05;1.00;;;0.93;;
18320;SDS011;54904;54.350;18.664;2023-01-16T04:00:37;1.67;;;0.90;;
18320;SDS011;54904;54.350;18.664;2023-01-16T04:03:13;1.97;;;1.13;;
18320;SDS011;54904;54.350;18.664;2023-01-16T04:05:47;2.30;;;1.30;;
18320;SDS011;54904;54.350;18.664;2023-01-16T04:08:21;1.00;;;1.00;;
18320;SDS011;54904;54.350;18.664;2023-01-16T04:10:55;1.37;;;0.80;;
18320;SDS011;54904;54.350;18.664;2023-01-16T04:13:22;3.07;;;1.00;;
18320;SDS011;54904;54.350;18.664;2023-01-16T04:15:55;4.20;;;1.23;;
18320;SDS011;54904;54.350;18.664;2023-01-16T04:18:24;1.20;;;0.93;;
18320;SDS011;54904;54.350;18.664;2023-01-16T04:20:56;2.10;;;0.73;;
18320;SDS011;54904;54.350;18.664;2023-01-16T04:23:23;1.10;;;0.80;;
18320;SDS011;54904;54.350;18.664;2023-01-16T04:25:51;1.73;;;1.10;;
18320;SDS011;54904;54.350;18.664;2023-01-16T04:28:18;1.33;;;0.93;;
18320;SDS011;54904;54.350;18.664;2023-01-16T04:30:45;1.27;;;0.90;;
18320;SDS011;54904;54.350;18.664;2023-01-16T04:33:12;2.20;;;1.33;;
18320;SDS011;54904;54.350;18.664;2023-01-16T04:35:39;2.17;;;1.43;;
18320;SDS011;54904;54.350;18.664;2023-01-16T04:38:08;2.37;;;1.47;;
18320;SDS011;54904;54.350;18.664;2023-01-16T04:40:35;1.10;;;1.00;;
18320;SDS011;54904;54.350;18.664;2023-01-16T04:43:02;1.83;;;1.10;;
18320;SDS011;54904;54.350;18.664;2023-01-16T04:45:29;2.27;;;1.40;;
18320;SDS011;54904;54.350;18.664;2023-01-16T04:47:56;2.30;;;1.30;;
18320;SDS011;54904;54.350;18.664;2023-01-16T04:50:23;3.03;;;1.37;;
18320;SDS011;54904;54.350;18.664;2023-01-16T04:52:50;4.03;;;1.90;;
18320;SDS011;54904;54.350;18.664;2023-01-16T04:55:19;2.47;;;1.43;;
18320;SDS011;54904;54.350;18.664;2023-01-16T04:57:47;3.47;;;1.67;;
18320;SDS011;54904;54.350;18.664;2023-01-16T05:00:14;3.03;;;1.70;;
18320;SDS011;54904;54.350;18.664;2023-01-16T05:02:41;2.77;;;1.50;;
18320;SDS011;54904;54.350;18.664;2023-01-16T05:05:09;3.50;;;1.70;;
18320;SDS011;54904;54.350;18.664;2023-01-16T05:07:36;2.77;;;1.80;;
18320;SDS011;54904;54.350;18.664;2023-01-16T05:10:03;2.03;;;1.60;;
18320;SDS011;54904;54.350;18.664;2023-01-16T05:12:32;3.70;;;1.60;;
18320;SDS011;54904;54.350;18.664;2023-01-16T05:14:59;3.73;;;1.70;;
18320;SDS011;54904;54.350;18.664;2023-01-16T05:17:26;3.90;;;1.83;;
18320;SDS011;54904;54.350;18.664;2023-01-16T05:19:53;3.97;;;2.17;;
18320;SDS011;54904;54.350;18.664;2023-01-16T05:22:20;5.73;;;2.43;;
18320;SDS011;54904;54.350;18.664;2023-01-16T05:24:47;5.77;;;2.00;;
18320;SDS011;54904;54.350;18.664;2023-01-16T05:27:14;2.77;;;1.93;;
18320;SDS011;54904;54.350;18.664;2023-01-16T05:29:43;2.83;;;1.70;;
18320;SDS011;54904;54.350;18.664;2023-01-16T05:32:10;1.37;;;1.27;;
18320;SDS011;54904;54.350;18.664;2023-01-16T05:34:37;2.20;;;1.10;;
18320;SDS011;54904;54.350;18.664;2023-01-16T05:37:04;2.00;;;1.37;;
18320;SDS011;54904;54.350;18.664;2023-01-16T05:39:31;1.87;;;1.30;;
18320;SDS011;54904;54.350;18.664;2023-01-16T05:41:58;2.27;;;1.40;;
18320;SDS011;54904;54.350;18.664;2023-01-16T05:44:25;2.93;;;1.27;;
18320;SDS011;54904;54.350;18.664;2023-01-16T05:46:54;1.57;;;1.00;;
18320;SDS011;54904;54.350;18.664;2023-01-16T05:49:21;1.60;;;1.00;;
18320;SDS011;54904;54.350;18.664;2023-01-16T05:51:48;2.07;;;0.90;;
18320;SDS011;54904;54.350;18.664;2023-01-16T05:54:15;1.20;;;1.10;;
18320;SDS011;54904;54.350;18.664;2023-01-16T05:56:42;1.63;;;1.27;;
18320;SDS011;54904;54.350;18.664;2023-01-16T05:59:09;2.70;;;1.47;;
18320;SDS011;54904;54.350;18.664;2023-01-16T06:01:36;3.53;;;1.20;;
18320;SDS011;54904;54.350;18.664;2023-01-16T06:04:05;5.60;;;1.93;;
18320;SDS011;54904;54.350;18.664;2023-01-16T06:06:32;1.90;;;1.37;;
18320;SDS011;54904;54.350;18.664;2023-01-16T06:08:59;2.63;;;1.43;;
18320;SDS011;54904;54.350;18.664;2023-01-16T06:11:26;1.57;;;1.10;;
18320;SDS011;54904;54.350;18.664;2023-01-16T06:13:53;1.53;;;1.43;;
18320;SDS011;54904;54.350;18.664;2023-01-16T06:16:21;1.87;;;1.30;;
18320;SDS011;54904;54.350;18.664;2023-01-16T06:18:48;2.83;;;1.57;;
18320;SDS011;54904;54.350;18.664;2023-01-16T06:21:17;1.80;;;1.50;;
18320;SDS011;54904;54.350;18.664;2023-01-16T06:23:44;2.63;;;1.27;;
18320;SDS011;54904;54.350;18.664;2023-01-16T06:26:11;3.90;;;1.80;;
18320;SDS011;54904;54.350;18.664;2023-01-16T06:28:38;2.10;;;1.60;;
18320;SDS011;54904;54.350;18.664;2023-01-16T06:31:06;1.50;;;1.40;;
18320;SDS011;54904;54.350;18.664;2023-01-16T06:33:34;1.90;;;1.53;;
18320;SDS011;54904;54.350;18.664;2023-01-16T06:36:01;3.87;;;1.80;;
18320;SDS011;54904;54.350;18.664;2023-01-16T06:38:30;2.13;;;1.80;;
18320;SDS011;54904;54.350;18.664;2023-01-16T06:40:57;3.07;;;2.13;;
18320;SDS011;54904;54.350;18.664;2023-01-16T06:43:24;4.07;;;2.20;;
18320;SDS011;54904;54.350;18.664;2023-01-16T06:45:51;4.83;;;2.57;;
18320;SDS011;54904;54.350;18.664;2023-01-16T06:48:19;2.80;;;2.10;;
18320;SDS011;54904;54.350;18.664;2023-01-16T06:50:46;3.60;;;2.40;;
18320;SDS011;54904;54.350;18.664;2023-01-16T06:53:14;3.70;;;2.50;;
18320;SDS011;54904;54.350;18.664;2023-01-16T06:55:43;4.23;;;2.50;;
18320;SDS011;54904;54.350;18.664;2023-01-16T06:58:10;3.27;;;2.00;;
18320;SDS011;54904;54.350;18.664;2023-01-16T07:00:37;3.47;;;2.13;;
18320;SDS011;54904;54.350;18.664;2023-01-16T07:03:04;3.50;;;2.30;;
18320;SDS011;54904;54.350;18.664;2023-01-16T07:05:31;3.73;;;2.07;;
18320;SDS011;54904;54.350;18.664;2023-01-16T07:07:58;2.53;;;1.83;;
18320;SDS011;54904;54.350;18.664;2023-01-16T07:10:26;4.90;;;2.27;;
18320;SDS011;54904;54.350;18.664;2023-01-16T07:12:54;3.13;;;1.90;;
18320;SDS011;54904;54.350;18.664;2023-01-16T07:15:21;5.63;;;2.10;;
18320;SDS011;54904;54.350;18.664;2023-01-16T07:18:08;5.57;;;1.70;;
18320;SDS011;54904;54.350;18.664;2023-01-16T07:20:56;2.97;;;1.93;;
18320;SDS011;54904;54.350;18.664;2023-01-16T07:23:43;3.33;;;2.33;;
18320;SDS011;54904;54.350;18.664;2023-01-16T07:26:13;4.47;;;1.87;;
18320;SDS011;54904;54.350;18.664;2023-01-16T07:28:46;3.73;;;1.80;;
18320;SDS011;54904;54.350;18.664;2023-01-16T07:31:14;2.90;;;1.60;;
18320;SDS011;54904;54.350;18.664;2023-01-16T07:33:42;2.77;;;2.10;;
18320;SDS011;54904;54.350;18.664;2023-01-16T07:36:09;5.57;;;2.63;;
18320;SDS011;54904;54.350;18.664;2023-01-16T07:38:36;2.83;;;1.73;;
18320;SDS011;54904;54.350;18.664;2023-01-16T07:41:03;3.67;;;2.43;;
18320;SDS011;54904;54.350;18.664;2023-01-16T07:43:31;2.80;;;2.40;;
18320;SDS011;54904;54.350;18.664;2023-01-16T07:45:59;4.43;;;2.60;;
18320;SDS011;54904;54.350;18.664;2023-01-16T07:48:26;2.67;;;2.20;;
18320;SDS011;54904;54.350;18.664;2023-01-16T07:50:54;10.87;;;2.87;;
18320;SDS011;54904;54.350;18.664;2023-01-16T07:53:23;8.43;;;3.47;;
18320;SDS011;54904;54.350;18.664;2023-01-16T07:55:52;7.67;;;3.70;;
18320;SDS011;54904;54.350;18.664;2023-01-16T07:58:21;12.97;;;4.40;;
18320;SDS011;54904;54.350;18.664;2023-01-16T08:00:48;11.03;;;5.70;;
18320;SDS011;54904;54.350;18.664;2023-01-16T08:03:19;13.00;;;4.97;;
18320;SDS011;54904;54.350;18.664;2023-01-16T08:05:47;13.07;;;4.77;;
18320;SDS011;54904;54.350;18.664;2023-01-16T08:08:15;7.63;;;3.87;;
18320;SDS011;54904;54.350;18.664;2023-01-16T08:10:43;7.50;;;4.13;;
18320;SDS011;54904;54.350;18.664;2023-01-16T08:13:10;7.70;;;4.03;;
18320;SDS011;54904;54.350;18.664;2023-01-16T08:15:38;7.90;;;3.40;;
18320;SDS011;54904;54.350;18.664;2023-01-16T08:18:05;9.13;;;3.53;;
18320;SDS011;54904;54.350;18.664;2023-01-16T08:20:33;5.17;;;3.30;;
18320;SDS011;54904;54.350;18.664;2023-01-16T08:23:00;5.97;;;3.40;;
18320;SDS011;54904;54.350;18.664;2023-01-16T08:25:27;6.47;;;3.50;;
18320;SDS011;54904;54.350;18.664;2023-01-16T08:27:55;5.10;;;3.40;;
18320;SDS011;54904;54.350;18.664;2023-01-16T08:30:22;5.47;;;2.70;;
18320;SDS011;54904;54.350;18.664;2023-01-16T08:32:49;6.60;;;3.60;;
18320;SDS011;54904;54.350;18.664;2023-01-16T08:35:22;5.07;;;3.43;;
18320;SDS011;54904;54.350;18.664;2023-01-16T08:37:51;7.23;;;3.20;;
18320;SDS011;54904;54.350;18.664;2023-01-16T08:40:18;5.87;;;3.47;;
18320;SDS011;54904;54.350;18.664;2023-01-16T08:42:46;3.80;;;2.60;;
18320;SDS011;54904;54.350;18.664;2023-01-16T08:45:30;5.37;;;2.83;;
18320;SDS011;54904;54.350;18.664;2023-01-16T08:48:16;7.00;;;2.70;;
18320;SDS011;54904;54.350;18.664;2023-01-16T08:51:06;3.37;;;2.60;;
18320;SDS011;54904;54.350;18.664;2023-01-16T08:53:50;6.43;;;2.70;;
18320;SDS011;54904;54.350;18.664;2023-01-16T08:56:18;5.40;;;3.10;;
18320;SDS011;54904;54.350;18.664;2023-01-16T08:58:46;8.60;;;4.63;;
18320;SDS011;54904;54.350;18.664;2023-01-16T09:01:13;6.90;;;3.77;;
18320;SDS011;54904;54.350;18.664;2023-01-16T09:03:41;6.77;;;3.30;;
18320;SDS011;54904;54.350;18.664;2023-01-16T09:06:08;8.37;;;3.63;;
18320;SDS011;54904;54.350;18.664;2023-01-16T09:08:35;4.80;;;3.17;;
18320;SDS011;54904;54.350;18.664;2023-01-16T09:11:04;8.87;;;3.60;;
18320;SDS011;54904;54.350;18.664;2023-01-16T09:13:49;6.10;;;3.50;;
18320;SDS011;54904;54.350;18.664;2023-01-16T09:16:16;5.70;;;3.00;;
18320;SDS011;54904;54.350;18.664;2023-01-16T09:18:44;3.67;;;2.67;;
18320;SDS011;54904;54.350;18.664;2023-01-16T09:21:11;8.20;;;3.40;;
18320;SDS011;54904;54.350;18.664;2023-01-16T09:23:38;5.30;;;2.37;;
18320;SDS011;54904;54.350;18.664;2023-01-16T09:26:07;4.30;;;2.80;;
18320;SDS011;54904;54.350;18.664;2023-01-16T09:28:34;7.33;;;3.10;;
18320;SDS011;54904;54.350;18.664;2023-01-16T09:31:01;4.50;;;2.63;;
18320;SDS011;54904;54.350;18.664;2023-01-16T09:33:29;4.60;;;2.70;;
18320;SDS011;54904;54.350;18.664;2023-01-16T09:35:56;3.40;;;2.47;;
18320;SDS011;54904;54.350;18.664;2023-01-16T09:38:23;6.90;;;3.20;;
18320;SDS011;54904;54.350;18.664;2023-01-16T09:40:53;3.23;;;2.20;;
18320;SDS011;54904;54.350;18.664;2023-01-16T09:43:32;3.60;;;2.60;;
18320;SDS011;54904;54.350;18.664;2023-01-16T09:46:01;4.57;;;2.77;;
18320;SDS011;54904;54.350;18.664;2023-01-16T09:48:35;4.40;;;3.07;;
18320;SDS011;54904;54.350;18.664;2023-01-16T09:51:18;7.40;;;4.10;;
18320;SDS011;54904;54.350;18.664;2023-01-16T09:53:57;7.07;;;3.87;;
18320;SDS011;54904;54.350;18.664;2023-01-16T10:01:16;4.17;;;2.70;;
18320;SDS011;54904;54.350;18.664;2023-01-16T10:12:39;3.50;;;2.40;;
18320;SDS011;54904;54.350;18.664;2023-01-16T10:36:21;5.77;;;2.60;;
18320;SDS011;54904;54.350;18.664;2023-01-16T10:45:00;6.00;;;2.90;;
18320;SDS011;54904;54.350;18.664;2023-01-16T11:09:45;5.43;;;3.00;;
18320;SDS011;54904;54.350;18.664;2023-01-16T11:12:17;4.33;;;3.40;;
18320;SDS011;54904;54.350;18.664;2023-01-16T11:15:14;4.03;;;2.73;;
18320;SDS011;54904;54.350;18.664;2023-01-16T11:18:02;3.87;;;2.57;;
18320;SDS011;54904;54.350;18.664;2023-01-16T11:20:57;5.43;;;2.77;;
18320;SDS011;54904;54.350;18.664;2023-01-16T11:23:35;4.90;;;2.70;;
18320;SDS011;54904;54.350;18.664;2023-01-16T11:26:09;4.80;;;2.93;;
18320;SDS011;54904;54.350;18.664;2023-01-16T11:28:41;5.17;;;2.70;;
18320;SDS011;54904;54.350;18.664;2023-01-16T11:31:13;6.37;;;2.70;;
18320;SDS011;54904;54.350;18.664;2023-01-16T11:33:45;3.70;;;2.77;;
18320;SDS011;54904;54.350;18.664;2023-01-16T11:36:15;4.43;;;3.00;;
18320;SDS011;54904;54.350;18.664;2023-01-16T11:38:44;6.30;;;2.90;;
18320;SDS011;54904;54.350;18.664;2023-01-16T11:52:46;3.80;;;2.63;;
18320;SDS011;54904;54.350;18.664;2023-01-16T11:58:51;7.67;;;3.13;;
18320;SDS011;54904;54.350;18.664;2023-01-16T12:10:33;4.70;;;3.07;;
18320;SDS011;54904;54.350;18.664;2023-01-16T12:13:30;3.70;;;2.33;;
18320;SDS011;54904;54.350;18.664;2023-01-16T12:17:07;4.63;;;2.23;;
18320;SDS011;54904;54.350;18.664;2023-01-16T12:20:02;4.23;;;2.33;;
18320;SDS011;54904;54.350;18.664;2023-01-16T12:22:56;6.53;;;3.33;;
18320;SDS011;54904;54.350;18.664;2023-01-16T12:25:43;7.80;;;3.70;;
18320;SDS011;54904;54.350;18.664;2023-01-16T12:28:22;9.67;;;4.03;;
18320;SDS011;54904;54.350;18.664;2023-01-16T12:31:01;7.17;;;3.93;;
18320;SDS011;54904;54.350;18.664;2023-01-16T12:33:48;8.47;;;3.90;;
18320;SDS011;54904;54.350;18.664;2023-01-16T12:36:25;9.47;;;4.27;;
18320;SDS011;54904;54.350;18.664;2023-01-16T12:39:02;6.73;;;3.80;;
18320;SDS011;54904;54.350;18.664;2023-01-16T12:41:39;6.17;;;3.63;;
18320;SDS011;54904;54.350;18.664;2023-01-16T12:44:31;9.17;;;4.07;;
18320;SDS011;54904;54.350;18.664;2023-01-16T12:47:24;7.90;;;3.37;;
18320;SDS011;54904;54.350;18.664;2023-01-16T12:50:06;11.30;;;4.53;;
18320;SDS011;54904;54.350;18.664;2023-01-16T12:52:55;10.73;;;4.87;;
18320;SDS011;54904;54.350;18.664;2023-01-16T12:55:37;14.07;;;5.70;;
18320;SDS011;54904;54.350;18.664;2023-01-16T12:58:13;44.30;;;18.57;;
18320;SDS011;54904;54.350;18.664;2023-01-16T13:00:42;25.90;;;11.83;;
18320;SDS011;54904;54.350;18.664;2023-01-16T13:03:16;14.87;;;7.10;;
18320;SDS011;54904;54.350;18.664;2023-01-16T13:05:50;10.70;;;5.13;;
18320;SDS011;54904;54.350;18.664;2023-01-16T13:08:22;7.93;;;4.23;;
18320;SDS011;54904;54.350;18.664;2023-01-16T13:10:53;7.70;;;4.40;;
18320;SDS011;54904;54.350;18.664;2023-01-16T13:13:42;9.63;;;4.33;;
18320;SDS011;54904;54.350;18.664;2023-01-16T13:16:16;7.53;;;3.90;;
18320;SDS011;54904;54.350;18.664;2023-01-16T13:18:47;9.60;;;3.97;;
18320;SDS011;54904;54.350;18.664;2023-01-16T13:21:20;12.27;;;4.10;;
18320;SDS011;54904;54.350;18.664;2023-01-16T13:23:52;8.83;;;3.70;;
18320;SDS011;54904;54.350;18.664;2023-01-16T13:26:22;8.37;;;4.30;;
18320;SDS011;54904;54.350;18.664;2023-01-16T13:28:53;7.07;;;4.00;;
18320;SDS011;54904;54.350;18.664;2023-01-16T13:31:30;7.43;;;4.30;;
18320;SDS011;54904;54.350;18.664;2023-01-16T13:34:02;9.57;;;4.57;;
18320;SDS011;54904;54.350;18.664;2023-01-16T13:39:41;11.20;;;5.73;;
18320;SDS011;54904;54.350;18.664;2023-01-16T13:42:30;9.90;;;5.07;;
18320;SDS011;54904;54.350;18.664;2023-01-16T13:45:01;8.90;;;5.43;;
18320;SDS011;54904;54.350;18.664;2023-01-16T13:47:49;11.47;;;5.47;;
18320;SDS011;54904;54.350;18.664;2023-01-16T13:50:19;13.73;;;5.60;;
18320;SDS011;54904;54.350;18.664;2023-01-16T13:52:49;11.63;;;5.40;;
18320;SDS011;54904;54.350;18.664;2023-01-16T13:55:22;13.57;;;5.83;;
18320;SDS011;54904;54.350;18.664;2023-01-16T13:57:55;12.77;;;5.73;;
18320;SDS011;54904;54.350;18.664;2023-01-16T14:00:24;14.00;;;5.90;;
18320;SDS011;54904;54.350;18.664;2023-01-16T14:03:02;16.87;;;6.80;;
18320;SDS011;54904;54.350;18.664;2023-01-16T14:05:46;14.20;;;6.40;;
18320;SDS011;54904;54.350;18.664;2023-01-16T14:11:36;15.23;;;6.33;;
18320;SDS011;54904;54.350;18.664;2023-01-16T14:14:27;12.50;;;5.33;;
18320;SDS011;54904;54.350;18.664;2023-01-16T14:17:19;15.80;;;6.80;;
18320;SDS011;54904;54.350;18.664;2023-01-16T14:19:52;15.17;;;6.30;;
18320;SDS011;54904;54.350;18.664;2023-01-16T14:22:21;13.97;;;6.40;;
18320;SDS011;54904;54.350;18.664;2023-01-16T14:25:15;12.67;;;5.67;;
18320;SDS011;54904;54.350;18.664;2023-01-16T14:27:47;13.93;;;5.93;;
18320;SDS011;54904;54.350;18.664;2023-01-16T14:30:18;18.40;;;6.60;;
18320;SDS011;54904;54.350;18.664;2023-01-16T14:32:50;13.30;;;5.80;;
18320;SDS011;54904;54.350;18.664;2023-01-16T14:35:21;13.83;;;6.57;;
18320;SDS011;54904;54.350;18.664;2023-01-16T14:37:54;11.67;;;5.97;;
18320;SDS011;54904;54.350;18.664;2023-01-16T14:40:24;14.50;;;6.50;;
18320;SDS011;54904;54.350;18.664;2023-01-16T14:43:14;13.70;;;6.03;;
18320;SDS011;54904;54.350;18.664;2023-01-16T14:52:43;14.40;;;7.13;;
18320;SDS011;54904;54.350;18.664;2023-01-16T14:55:31;16.80;;;7.13;;
18320;SDS011;54904;54.350;18.664;2023-01-16T14:58:06;13.17;;;5.97;;
18320;SDS011;54904;54.350;18.664;2023-01-16T15:00:33;18.97;;;7.67;;
18320;SDS011;54904;54.350;18.664;2023-01-16T15:03:04;15.97;;;7.13;;
18320;SDS011;54904;54.350;18.664;2023-01-16T15:05:39;18.57;;;7.97;;
18320;SDS011;54904;54.350;18.664;2023-01-16T15:08:17;18.70;;;7.67;;
18320;SDS011;54904;54.350;18.664;2023-01-16T15:10:47;16.30;;;6.70;;
18320;SDS011;54904;54.350;18.664;2023-01-16T15:13:20;12.50;;;6.07;;
18320;SDS011;54904;54.350;18.664;2023-01-16T15:15:49;14.37;;;6.87;;
18320;SDS011;54904;54.350;18.664;2023-01-16T15:18:19;13.13;;;6.67;;
18320;SDS011;54904;54.350;18.664;2023-01-16T15:21:09;12.77;;;6.20;;
18320;SDS011;54904;54.350;18.664;2023-01-16T15:23:56;14.20;;;6.17;;
18320;SDS011;54904;54.350;18.664;2023-01-16T15:26:26;14.87;;;6.67;;
18320;SDS011;54904;54.350;18.664;2023-01-16T15:32:18;9.47;;;5.17;;
18320;SDS011;54904;54.350;18.664;2023-01-16T15:34:46;14.23;;;5.90;;
18320;SDS011;54904;54.350;18.664;2023-01-16T15:37:30;13.70;;;7.30;;
18320;SDS011;54904;54.350;18.664;2023-01-16T15:39:58;12.23;;;6.20;;
18320;SDS011;54904;54.350;18.664;2023-01-16T15:42:26;10.43;;;5.87;;
18320;SDS011;54904;54.350;18.664;2023-01-16T15:45:15;15.03;;;6.77;;
18320;SDS011;54904;54.350;18.664;2023-01-16T15:51:07;17.43;;;8.30;;
18320;SDS011;54904;54.350;18.664;2023-01-16T15:53:37;18.17;;;7.77;;
18320;SDS011;54904;54.350;18.664;2023-01-16T15:56:16;21.90;;;8.43;;
18320;SDS011;54904;54.350;18.664;2023-01-16T15:58:57;17.40;;;7.70;;
18320;SDS011;54904;54.350;18.664;2023-01-16T16:01:24;14.93;;;7.00;;
18320;SDS011;54904;54.350;18.664;2023-01-16T16:03:53;15.43;;;7.87;;
18320;SDS011;54904;54.350;18.664;2023-01-16T16:06:21;15.37;;;7.43;;
18320;SDS011;54904;54.350;18.664;2023-01-16T16:08:52;16.87;;;8.03;;
18320;SDS011;54904;54.350;18.664;2023-01-16T16:11:21;14.70;;;6.90;;
18320;SDS011;54904;54.350;18.664;2023-01-16T16:14:19;14.07;;;7.10;;
18320;SDS011;54904;54.350;18.664;2023-01-16T16:17:16;20.90;;;10.60;;
18320;SDS011;54904;54.350;18.664;2023-01-16T16:22:49;21.33;;;9.77;;
18320;SDS011;54904;54.350;18.664;2023-01-16T16:25:18;18.87;;;9.40;;
18320;SDS011;54904;54.350;18.664;2023-01-16T16:27:52;24.17;;;10.30;;
18320;SDS011;54904;54.350;18.664;2023-01-16T16:30:20;22.87;;;10.10;;
18320;SDS011;54904;54.350;18.664;2023-01-16T16:32:51;14.60;;;7.30;;
18320;SDS011;54904;54.350;18.664;2023-01-16T16:35:22;15.07;;;7.47;;
18320;SDS011;54904;54.350;18.664;2023-01-16T16:37:54;18.03;;;8.57;;
18320;SDS011;54904;54.350;18.664;2023-01-16T16:40:23;18.47;;;8.87;;
18320;SDS011;54904;54.350;18.664;2023-01-16T16:42:51;15.17;;;7.40;;
18320;SDS011;54904;54.350;18.664;2023-01-16T16:45:26;21.70;;;9.80;;
18320;SDS011;54904;54.350;18.664;2023-01-16T16:48:30;23.90;;;10.13;;
18320;SDS011;54904;54.350;18.664;2023-01-16T16:53:50;20.37;;;9.67;;
18320;SDS011;54904;54.350;18.664;2023-01-16T16:56:21;19.77;;;9.27;;
18320;SDS011;54904;54.350;18.664;2023-01-16T16:58:51;16.60;;;9.27;;
18320;SDS011;54904;54.350;18.664;2023-01-16T17:01:20;15.50;;;8.27;;